Weather History for Kimball, NE

Change the Weather History Date:

Tuesday, August 20, 2013

  Actual Average (KSNY) Record (KSNY)
Temperature  
Mean Temperature 78 °F 73 °F  
Max Temperature 98 °F 88 °F 101 °F (2013)
Min Temperature 59 °F 58 °F 39 °F (1978)
Degree Days  
Heating Degree Days 0 0  
Month to date heating degree days 0  
Since 1 June heating degree days 62  
Since 1 July heating degree days 3  
Cooling Degree Days 14 8  
Month to date cooling degree days 187  
Year to date cooling degree days 665  
Since 1 June cooling degree days 643  
Growing Degree Days 28 (Base 50)    
Moisture  
Dew Point 47 °F    
Average Humidity 38    
Maximum Humidity 74    
Minimum Humidity 11    
Precipitation  
Precipitation 0.00 in 0.06 in 0.45 in (1979)
Month to date precipitation 1.53  
Year to date precipitation 14.43  
Sea Level Pressure  
Sea Level Pressure 30.03 in    
Wind  
Wind Speed 9 mph (SSW)    
Max Wind Speed 21 mph    
Max Gust Speed 25 mph    
Visibility 10 miles    
Events      
T = Trace of Precipitation, MM = Missing Value Source: NWS Daily Summary

Daily Weather History Graph

Daily Weather History Graph

Search for Another Location

Airport:

Trip Planner

Search our weather history database for the weather conditions in past years. The results will help you decide how hot, cold, wet, or windy it might be!

Date:

Astronomy

Aug. 20, 2013 Rise Set
Actual Time 7:09 AM CDT 8:45 PM CDT
Civil Twilight 6:40 AM CDT 9:14 PM CDT
Nautical Twilight 6:04 AM CDT 9:50 PM CDT
Astronomical Twilight 5:27 AM CDT 10:27 PM CDT
Moon 8:18 PM CDT (8/20) 6:42 AM CDT (8/20)
Length of Visible Light 14h 34m
Length of Day
13h 36m
Full, 100% of the Moon is Illuminated
Aug 20
Full
Aug 20
Full
Aug 28
Last Quarter
Sep 5
New
Sep 12
First Quarter

Hourly Weather History & Observations

Time (CDT) Temp. Heat Index Dew Point Humidity Pressure Visibility Wind Dir Wind Speed Gust Speed Precip Events Conditions
12:15 AM 68.5 °F - 54.0 °F 60% 30.06 in 10.0 mi South 6.9 mph - N/A   Clear
12:35 AM 67.3 °F - 54.0 °F 62% 30.06 in 10.0 mi South 9.2 mph - N/A   Clear
12:55 AM 68.2 °F - 52.9 °F 58% 30.06 in 10.0 mi South 10.4 mph - N/A   Clear
1:15 AM 67.1 °F - 52.7 °F 60% 30.06 in 10.0 mi SSW 9.2 mph - N/A   Clear
1:35 AM 68.0 °F - 52.0 °F 56% 30.06 in 10.0 mi SSW 9.2 mph - N/A   Clear
1:55 AM 70.0 °F - 51.6 °F 52% 30.05 in 10.0 mi SSW 12.7 mph - N/A   Clear
2:15 AM 71.6 °F - 51.8 °F 50% 30.04 in 10.0 mi SSW 11.5 mph - N/A   Clear
2:35 AM 71.6 °F - 52.5 °F 51% 30.04 in 10.0 mi SSW 11.5 mph - N/A   Clear
2:55 AM 72.3 °F - 52.7 °F 50% 30.03 in 10.0 mi SSW 13.8 mph - N/A   Clear
3:15 AM 71.6 °F - 53.6 °F 53% 30.03 in 10.0 mi SSW 12.7 mph - N/A   Clear
3:35 AM 70.2 °F - 53.8 °F 56% 30.03 in 10.0 mi SSW 8.1 mph - N/A   Clear
3:55 AM 68.4 °F - 54.0 °F 60% 30.03 in 10.0 mi SSW 8.1 mph - N/A   Clear
4:15 AM 67.8 °F - 54.1 °F 62% 30.02 in 10.0 mi SSW 8.1 mph - N/A   Clear
4:35 AM 66.9 °F - 54.0 °F 63% 30.02 in 10.0 mi SW 3.5 mph - N/A   Clear
4:55 AM 66.2 °F - 53.6 °F 64% 30.02 in 10.0 mi SW 4.6 mph - N/A   Clear
5:15 AM 64.6 °F - 53.6 °F 68% 30.02 in 10.0 mi WSW 4.6 mph - N/A   Clear
5:35 AM 64.9 °F - 52.3 °F 64% 30.01 in 10.0 mi WSW 8.1 mph - N/A   Clear
5:55 AM 64.4 °F - 52.0 °F 64% 30.02 in 10.0 mi WSW 6.9 mph - N/A   Clear
6:15 AM 62.6 °F - 52.0 °F 68% 30.02 in 10.0 mi WSW 4.6 mph - N/A   Clear
6:35 AM 60.8 °F - 51.8 °F 72% 30.02 in 10.0 mi WSW 6.9 mph - N/A   Clear
6:55 AM 60.3 °F - 51.3 °F 72% 30.03 in 10.0 mi WSW 6.9 mph - N/A   Clear
7:15 AM 59.4 °F - 51.1 °F 74% 30.03 in 10.0 mi West 8.1 mph - N/A   Clear
7:35 AM 59.9 °F - 51.3 °F 73% 30.04 in 10.0 mi West 9.2 mph - N/A   Clear
7:55 AM 60.3 °F - 51.6 °F 73% 30.04 in 10.0 mi West 8.1 mph - N/A   Clear
8:15 AM 62.2 °F - 51.8 °F 69% 30.04 in 10.0 mi WSW 4.6 mph - N/A   Clear
8:35 AM 65.3 °F - 51.6 °F 61% 30.04 in 10.0 mi WSW 5.8 mph - N/A   Clear
8:55 AM 68.7 °F - 51.8 °F 55% 30.04 in 10.0 mi WSW 4.6 mph - N/A   Clear
9:15 AM 72.3 °F - 52.3 °F 49% 30.04 in 10.0 mi SW 5.8 mph - N/A   Clear
9:35 AM 75.2 °F - 51.8 °F 44% 30.04 in 10.0 mi SW 4.6 mph - N/A   Clear
9:55 AM 78.8 °F - 52.0 °F 39% 30.04 in 10.0 mi West 5.8 mph - N/A   Clear
10:15 AM 77.9 °F - 55.0 °F 45% 30.04 in 10.0 mi WNW 3.5 mph - N/A   Clear
10:35 AM 80.4 °F 80.2 °F 53.8 °F 40% 30.04 in 10.0 mi West 3.5 mph - N/A   Clear
10:55 AM 83.5 °F - 51.4 °F 33% 30.04 in 10.0 mi WSW 8.1 mph - N/A   Clear
11:15 AM 86.9 °F - 47.5 °F 25% 30.04 in 10.0 mi SW 8.1 mph - N/A   Clear
11:35 AM 88.9 °F - 47.1 °F 24% 30.04 in 10.0 mi SW 6.9 mph - N/A   Clear
11:55 AM 90.5 °F - 48.2 °F 23% 30.04 in 10.0 mi South 9.2 mph - N/A   Clear
12:15 PM 91.9 °F - 46.8 °F 21% 30.03 in 10.0 mi SSW 5.8 mph - N/A   Clear
12:35 PM 94.5 °F - 40.8 °F 16% 30.03 in 10.0 mi South 16.1 mph 21.9 mph N/A   Clear
12:55 PM 94.6 °F - 39.2 °F 15% 30.03 in 10.0 mi South 18.4 mph 23.0 mph N/A   Clear
1:15 PM 95.4 °F - 39.0 °F 14% 30.03 in 10.0 mi South 17.3 mph 21.9 mph N/A   Clear
1:35 PM 95.9 °F - 37.8 °F 13% 30.02 in 10.0 mi South 18.4 mph 24.2 mph N/A   Clear
1:55 PM 97.0 °F - 37.2 °F 12% 30.02 in 10.0 mi South 17.3 mph 23.0 mph N/A   Clear
2:15 PM 97.2 °F - 37.0 °F 12% 30.02 in 10.0 mi SSW 20.7 mph 24.2 mph N/A   Clear
2:35 PM 97.3 °F - 36.1 °F 12% 30.02 in 10.0 mi South 18.4 mph 21.9 mph N/A   Clear
2:55 PM 97.9 °F - 36.0 °F 12% 30.02 in 10.0 mi South 16.1 mph - N/A   Clear
3:15 PM 97.9 °F - 34.9 °F 11% 30.01 in 10.0 mi South 13.8 mph 21.9 mph N/A   Clear
3:35 PM 98.2 °F - 35.1 °F 11% 30.00 in 10.0 mi South 13.8 mph - N/A   Clear
3:55 PM 97.5 °F - 36.0 °F 12% 30.00 in 10.0 mi South 10.4 mph - N/A   Clear
4:15 PM 97.3 °F - 34.5 °F 11% 30.00 in 10.0 mi South 11.5 mph - N/A   Clear
4:35 PM 95.0 °F - 38.3 °F 14% 29.99 in 10.0 mi South 11.5 mph - N/A   Clear
4:55 PM 92.3 °F - 39.9 °F 16% 29.99 in 10.0 mi South 6.9 mph - N/A   Clear
5:15 PM 93.6 °F - 42.8 °F 17% 29.99 in 10.0 mi SSE 11.5 mph - N/A   Clear
5:35 PM 95.2 °F - 39.4 °F 14% 29.99 in 10.0 mi SSE 19.6 mph 24.2 mph N/A   Clear
5:55 PM 92.7 °F - 37.9 °F 15% 29.99 in 10.0 mi SSE 17.3 mph 25.3 mph N/A   Clear
6:15 PM 91.2 °F - 40.8 °F 17% 30.00 in 10.0 mi South 13.8 mph 23.0 mph N/A   Clear
6:35 PM 89.4 °F - 41.9 °F 19% 30.00 in 10.0 mi South 11.5 mph - N/A   Clear
6:55 PM 89.1 °F - 41.7 °F 19% 30.00 in 10.0 mi South 10.4 mph - N/A   Clear
7:15 PM 87.8 °F - 43.0 °F 21% 30.00 in 10.0 mi SSE 6.9 mph - N/A   Clear
7:35 PM 86.2 °F - 44.6 °F 23% 30.00 in 10.0 mi South 8.1 mph - N/A   Clear
7:55 PM 85.6 °F - 44.2 °F 23% 30.00 in 10.0 mi SSE 10.4 mph - N/A   Clear
8:15 PM 85.6 °F - 44.1 °F 23% 30.01 in 10.0 mi SSE 13.8 mph - N/A   Clear
8:35 PM 84.2 °F - 45.0 °F 25% 30.02 in 10.0 mi SSE 11.5 mph - N/A   Clear
8:55 PM 84.0 °F - 44.6 °F 25% 30.04 in 10.0 mi South 6.9 mph - N/A   Clear
9:15 PM 84.9 °F - 43.2 °F 23% 30.05 in 10.0 mi SSW 9.2 mph - N/A   Clear
9:35 PM 83.8 °F - 43.2 °F 24% 30.05 in 10.0 mi South 8.1 mph - N/A   Clear
9:55 PM 81.7 °F - 44.1 °F 26% 30.05 in 10.0 mi South 6.9 mph - N/A   Clear
10:15 PM 79.7 °F - 45.1 °F 29% 30.06 in 10.0 mi South 6.9 mph - N/A   Clear
10:35 PM 78.1 °F - 45.9 °F 32% 30.05 in 10.0 mi South 9.2 mph - N/A   Clear
10:55 PM 75.2 °F - 47.5 °F 37% 30.05 in 10.0 mi South 8.1 mph - N/A   Clear
11:15 PM 74.5 °F - 48.2 °F 39% 30.05 in 10.0 mi South 6.9 mph - N/A   Clear
11:35 PM 75.0 °F - 47.3 °F 37% 30.05 in 10.0 mi SSE 9.2 mph - N/A   Clear
11:55 PM 73.4 °F - 48.9 °F 42% 30.04 in 10.0 mi SE 6.9 mph - N/A   Clear